Time;durP1;ratioP1;P1;durP2;ratioP2;P2;SDS_P1;SDS_P2;PMS_P1;PMS_P2;Temp;Humidity;BMP_temperature;BMP_pressure;BME280_temperature;BME280_humidity;BME280_pressure;Samples;Min_cycle;Max_cycle;Signal;HPM_P1;HPM_P2
2022/07/12 00:00:20;;;;;;;4.90;3.42;;;;;;;16.72;75.45;102367.50;5085144;28;20044;-61
2022/07/12 00:02:45;;;;;;;4.60;3.78;;;;;;;16.71;75.25;102362.31;5085010;28;20047;-61
2022/07/12 00:05:10;;;;;;;7.88;3.78;;;;;;;16.66;75.67;102360.16;5086684;28;20400;-61
2022/07/12 00:07:35;;;;;;;7.20;3.95;;;;;;;16.60;75.73;102358.16;5078040;28;20128;-61
2022/07/12 00:10:01;;;;;;;5.30;4.15;;;;;;;16.57;76.45;102344.25;5086183;28;20055;-62
2022/07/12 00:12:26;;;;;;;5.22;4.28;;;;;;;16.56;76.39;102350.63;5076269;28;20090;-62
2022/07/12 00:14:51;;;;;;;5.40;3.97;;;;;;;16.54;76.92;102358.84;5083690;28;20036;-59
2022/07/12 00:17:16;;;;;;;6.00;4.20;;;;;;;16.51;76.58;102358.34;5087940;28;20032;-62
2022/07/12 00:19:42;;;;;;;4.68;4.20;;;;;;;16.47;76.91;102354.31;5083302;28;20028;-61
2022/07/12 00:22:07;;;;;;;5.07;3.90;;;;;;;16.42;76.68;102352.16;5075590;28;20020;-61
2022/07/12 00:24:33;;;;;;;5.43;4.00;;;;;;;16.45;76.64;102357.19;5076653;28;20157;-61
2022/07/12 00:26:58;;;;;;;4.68;4.00;;;;;;;16.40;76.54;102355.00;5082250;28;20020;-60
2022/07/12 00:29:23;;;;;;;4.78;3.50;;;;;;;16.47;76.69;102344.44;5078278;28;20032;-62
2022/07/12 00:31:48;;;;;;;5.68;3.63;;;;;;;16.53;76.80;102343.75;5080524;28;20588;-60
2022/07/12 00:34:14;;;;;;;4.32;3.47;;;;;;;16.51;76.88;102353.81;5081001;28;20024;-61
2022/07/12 00:36:39;;;;;;;4.75;3.88;;;;;;;16.48;76.98;102345.25;5082505;28;20040;-61
2022/07/12 00:39:04;;;;;;;4.30;3.90;;;;;;;16.43;77.02;102338.56;5081266;28;20021;-61
2022/07/12 00:41:30;;;;;;;5.60;3.70;;;;;;;16.47;77.25;102335.53;5078446;28;20028;-61
2022/07/12 00:43:55;;;;;;;4.45;3.50;;;;;;;16.43;77.13;102343.94;5075633;28;20027;-62
2022/07/12 00:46:24;;;;;;;4.65;3.50;;;;;;;16.40;77.46;102346.13;5080006;28;20016;-62
2022/07/12 00:48:50;;;;;;;3.55;3.25;;;;;;;16.31;77.17;102347.16;5076632;28;20029;-61
2022/07/12 00:51:18;;;;;;;4.03;3.42;;;;;;;16.35;76.92;102349.34;5077433;28;20453;-62
2022/07/12 00:53:44;;;;;;;4.07;3.28;;;;;;;16.29;77.06;102336.63;5073982;28;20446;-62
2022/07/12 00:56:09;;;;;;;4.68;3.60;;;;;;;16.21;76.85;102339.34;5081584;28;20645;-59
2022/07/12 00:58:34;;;;;;;5.78;3.92;;;;;;;16.17;76.86;102337.13;5074101;28;20120;-61
2022/07/12 01:01:00;;;;;;;5.30;3.55;;;;;;;16.11;77.30;102339.50;5084742;28;20077;-61
2022/07/12 01:03:27;;;;;;;5.03;4.10;;;;;;;16.04;77.40;102345.72;5083405;28;20023;-62
2022/07/12 01:05:53;;;;;;;6.18;4.00;;;;;;;15.97;77.44;102350.09;5077316;28;20771;-61
2022/07/12 01:08:19;;;;;;;4.57;3.83;;;;;;;15.92;77.45;102350.59;5078839;28;20522;-62
2022/07/12 01:10:46;;;;;;;6.40;4.30;;;;;;;15.88;77.84;102348.41;5076730;28;20028;-62
2022/07/12 01:13:11;;;;;;;5.70;4.40;;;;;;;15.88;77.96;102348.41;5077520;28;20093;-61
2022/07/12 01:15:37;;;;;;;6.93;3.95;;;;;;;15.81;77.98;102350.91;5081936;28;21733;-62
2022/07/12 01:18:04;;;;;;;4.20;3.55;;;;;;;15.72;77.64;102349.25;5076946;28;20365;-61
2022/07/12 01:20:30;;;;;;;6.03;4.20;;;;;;;15.67;76.94;102355.13;5078956;28;20103;-61
2022/07/12 01:22:58;;;;;;;5.05;3.72;;;;;;;15.59;77.39;102356.94;5074382;28;20016;-61
2022/07/12 01:25:24;;;;;;;4.75;4.10;;;;;;;15.56;77.45;102363.44;5076342;28;20020;-62
2022/07/12 01:27:49;;;;;;;5.38;4.30;;;;;;;15.54;77.74;102357.41;5071042;28;20059;-60
2022/07/12 01:30:15;;;;;;;4.70;3.67;;;;;;;15.54;78.32;102361.91;5076468;28;20036;-62
2022/07/12 01:32:40;;;;;;;4.22;3.83;;;;;;;15.50;78.84;102372.13;5082846;28;20035;-60
2022/07/12 01:35:06;;;;;;;5.35;3.75;;;;;;;15.44;79.08;102362.91;5075260;28;20028;-59
2022/07/12 01:37:37;;;;;;;4.13;3.55;;;;;;;15.42;79.15;102374.81;5071982;28;20031;-61
2022/07/12 01:40:04;;;;;;;3.20;2.80;;;;;;;15.40;79.32;102369.63;5080801;28;20028;-60
2022/07/12 01:42:30;;;;;;;3.65;3.35;;;;;;;15.51;78.89;102368.44;5081453;28;20061;-59
2022/07/12 01:44:56;;;;;;;4.47;3.60;;;;;;;15.53;79.10;102361.09;5074974;28;20366;-61
2022/07/12 01:47:25;;;;;;;6.13;3.65;;;;;;;15.52;79.10;102364.75;5076581;28;20028;-59
2022/07/12 01:49:51;;;;;;;4.30;3.03;;;;;;;15.50;78.47;102369.44;5076888;28;20103;-62
2022/07/12 01:52:17;;;;;;;4.50;3.70;;;;;;;15.45;78.79;102372.63;5074285;28;20540;-61
2022/07/12 01:54:43;;;;;;;4.80;3.45;;;;;;;15.43;78.83;102373.81;5076056;28;20074;-61
2022/07/12 01:57:08;;;;;;;4.03;3.63;;;;;;;15.43;78.98;102368.44;5081321;28;20664;-61
2022/07/12 01:59:34;;;;;;;4.18;3.70;;;;;;;15.38;78.76;102362.75;5082175;28;20037;-60
2022/07/12 02:02:00;;;;;;;3.00;2.80;;;;;;;15.36;78.95;102354.06;5076471;28;20474;-61
2022/07/12 02:04:26;;;;;;;4.32;3.05;;;;;;;15.39;78.98;102361.75;5072200;28;20065;-61
2022/07/12 02:06:51;;;;;;;3.88;2.92;;;;;;;15.38;78.81;102360.06;5076879;28;20020;-61
2022/07/12 02:09:17;;;;;;;3.75;2.95;;;;;;;15.39;78.84;102359.91;5073368;28;20028;-60
2022/07/12 02:11:43;;;;;;;3.55;3.13;;;;;;;15.34;79.46;102358.72;5077250;28;20047;-61
2022/07/12 02:14:09;;;;;;;5.35;3.15;;;;;;;15.33;79.11;102352.53;5079567;28;20077;-60
2022/07/12 02:16:35;;;;;;;3.92;3.45;;;;;;;15.33;79.61;102349.03;5080025;28;20032;-60
2022/07/12 02:19:01;;;;;;;10.80;4.30;;;;;;;15.23;79.36;102345.66;5080267;28;20400;-61
2022/07/12 02:21:26;;;;;;;4.53;4.13;;;;;;;15.22;79.55;102357.34;5075488;28;20024;-62
2022/07/12 02:23:51;;;;;;;4.10;3.70;;;;;;;15.20;79.62;102352.16;5082592;28;20035;-59
2022/07/12 02:26:17;;;;;;;4.00;3.70;;;;;;;15.27;80.33;102350.50;5078084;28;20051;-61
2022/07/12 02:28:43;;;;;;;4.85;4.20;;;;;;;15.28;79.87;102344.16;5077475;28;20051;-61
2022/07/12 02:31:08;;;;;;;4.40;3.67;;;;;;;15.18;80.43;102336.28;5078360;28;20742;-61
2022/07/12 02:33:34;;;;;;;4.00;3.65;;;;;;;15.22;80.30;102349.31;5077181;28;20024;-61
2022/07/12 02:35:59;;;;;;;3.50;3.20;;;;;;;15.22;79.85;102352.84;5075316;28;20027;-61
2022/07/12 02:38:25;;;;;;;4.35;3.95;;;;;;;15.16;79.92;102346.31;5079479;28;20028;-62
2022/07/12 02:40:53;;;;;;;4.05;3.40;;;;;;;15.14;80.05;102344.81;5074965;28;20099;-62
2022/07/12 02:43:25;;;;;;;3.78;3.38;;;;;;;15.19;79.71;102353.16;5074761;28;20028;-62
2022/07/12 02:45:52;;;;;;;4.03;3.55;;;;;;;15.15;80.03;102349.97;5077084;28;20033;-61
2022/07/12 02:48:18;;;;;;;7.78;3.50;;;;;;;15.19;80.10;102353.16;5077201;28;20024;-61
2022/07/12 02:50:43;;;;;;;3.45;3.22;;;;;;;15.22;79.73;102352.00;5074043;28;20051;-61
2022/07/12 02:53:09;;;;;;;3.83;3.30;;;;;;;15.21;79.72;102355.69;5072180;28;20057;-61
2022/07/12 02:55:35;;;;;;;4.10;3.17;;;;;;;15.21;80.17;102353.00;5077534;28;20027;-61
2022/07/12 02:58:01;;;;;;;3.83;3.33;;;;;;;15.12;79.98;102349.47;5075707;28;20052;-61
2022/07/12 03:00:28;;;;;;;3.88;3.40;;;;;;;15.12;80.03;102344.97;5074592;28;20039;-61
2022/07/12 03:02:53;;;;;;;6.00;2.83;;;;;;;15.12;79.86;102346.81;5073057;28;20051;-59
2022/07/12 03:05:18;;;;;;;4.00;3.60;;;;;;;15.15;80.15;102349.16;5072489;28;20552;-62
2022/07/12 03:07:44;;;;;;;3.45;3.15;;;;;;;15.12;79.66;102341.44;5081198;28;20057;-61
2022/07/12 03:10:09;;;;;;;3.90;3.17;;;;;;;15.12;79.76;102355.66;5077698;28;20537;-59
2022/07/12 03:12:34;;;;;;;3.70;3.38;;;;;;;15.06;80.11;102344.78;5080289;28;20016;-59
2022/07/12 03:15:00;;;;;;;4.03;3.40;;;;;;;15.05;79.73;102349.31;5082524;28;20520;-61
2022/07/12 03:17:25;;;;;;;5.10;3.67;;;;;;;14.97;79.71;102357.28;5077498;28;20020;-59
2022/07/12 03:19:51;;;;;;;3.92;3.28;;;;;;;15.04;79.88;102352.97;5077854;28;20037;-61
2022/07/12 03:22:16;;;;;;;4.50;2.75;;;;;;;14.96;79.82;102363.63;5078605;28;20488;-60
2022/07/12 03:24:41;;;;;;;3.60;3.30;;;;;;;14.92;79.17;102354.25;5072886;28;20411;-58
2022/07/12 03:27:07;;;;;;;5.72;3.45;;;;;;;14.85;79.50;102355.91;5069955;28;20044;-60
2022/07/12 03:29:32;;;;;;;11.25;5.25;;;;;;;14.86;79.90;102345.06;5080313;28;20469;-62
2022/07/12 03:31:57;;;;;;;3.92;3.50;;;;;;;14.83;80.20;102348.06;5073387;28;20044;-61
2022/07/12 03:34:23;;;;;;;4.55;3.15;;;;;;;14.79;80.05;102349.38;5073622;28;20393;-61
2022/07/12 03:36:48;;;;;;;4.28;3.60;;;;;;;14.83;80.17;102347.22;5075498;28;20154;-61
2022/07/12 03:39:13;;;;;;;7.10;3.60;;;;;;;14.73;79.66;102347.31;5080732;28;20044;-60
2022/07/12 03:41:39;;;;;;;3.95;3.55;;;;;;;14.73;79.75;102351.84;5075701;28;20030;-61
2022/07/12 03:44:05;;;;;;;3.47;2.95;;;;;;;14.63;79.49;102353.81;5069972;28;20028;-60
2022/07/12 03:46:32;;;;;;;2.70;2.50;;;;;;;14.49;79.01;102360.59;5071546;28;20028;-61
2022/07/12 03:48:58;;;;;;;3.75;2.83;;;;;;;14.39;79.26;102354.47;5076748;28;20069;-59
2022/07/12 03:51:23;;;;;;;6.07;3.45;;;;;;;14.44;79.34;102358.38;5073532;28;20029;-61
2022/07/12 03:53:48;;;;;;;5.35;4.07;;;;;;;14.46;79.80;102356.41;5073686;28;20032;-60
2022/07/12 03:57:13;;;;;;;5.18;4.68;;;;;;;14.42;79.90;102340.78;5076131;28;20658;-60
2022/07/12 03:58:59;;;;;;;4.90;3.70;;;;;;;14.51;79.93;102340.72;5073947;28;20595;-60
2022/07/12 04:01:24;;;;;;;5.35;4.10;;;;;;;14.46;79.92;102340.38;5078555;28;20020;-59
2022/07/12 04:03:49;;;;;;;4.43;3.65;;;;;;;14.40;80.29;102330.25;5086435;28;20019;-61
2022/07/12 04:06:14;;;;;;;5.25;4.13;;;;;;;14.40;80.17;102338.28;5074631;28;20042;-61
2022/07/12 04:08:40;;;;;;;4.55;4.10;;;;;;;14.46;80.67;102329.69;5075469;28;20103;-61
2022/07/12 04:11:06;;;;;;;6.25;4.40;;;;;;;14.48;80.77;102337.53;5073942;28;20054;-61
2022/07/12 04:13:32;;;;;;;4.43;4.03;;;;;;;14.51;81.05;102340.72;5075300;28;20385;-62
2022/07/12 04:15:58;;;;;;;6.72;4.28;;;;;;;14.48;80.78;102345.56;5077153;28;20020;-61
2022/07/12 04:18:23;;;;;;;5.82;4.30;;;;;;;14.47;80.57;102346.56;5077264;28;20119;-62
2022/07/12 04:20:49;;;;;;;4.65;3.90;;;;;;;14.38;80.45;102363.50;5074361;28;20522;-61
2022/07/12 04:23:14;;;;;;;5.15;3.80;;;;;;;14.25;80.25;102367.44;5075016;28;20028;-61
2022/07/12 04:25:39;;;;;;;4.65;3.92;;;;;;;14.18;80.13;102368.25;5077031;28;20518;-61
2022/07/12 04:28:04;;;;;;;3.83;3.53;;;;;;;14.18;80.63;102368.25;5075847;28;20032;-59
2022/07/12 04:30:30;;;;;;;4.93;4.22;;;;;;;14.29;80.83;102372.47;5074564;28;20073;-61
2022/07/12 04:32:55;;;;;;;7.72;4.70;;;;;;;14.38;81.47;102371.50;5075592;28;20046;-62
2022/07/12 04:35:20;;;;;;;4.45;4.03;;;;;;;14.35;81.37;102380.69;5075872;28;20075;-61
2022/07/12 04:37:45;;;;;;;5.32;4.22;;;;;;;14.35;81.42;102374.50;5077681;28;20417;-61
2022/07/12 04:40:11;;;;;;;4.82;3.72;;;;;;;14.36;81.14;102382.38;5078576;28;20026;-61
2022/07/12 04:42:37;;;;;;;3.83;3.53;;;;;;;14.39;81.46;102375.84;5078529;28;20067;-61
2022/07/12 04:45:02;;;;;;;5.80;3.65;;;;;;;14.44;81.23;102374.41;5077332;28;20028;-62
2022/07/12 04:47:28;;;;;;;3.83;3.42;;;;;;;14.41;81.16;102357.84;5082414;28;20051;-60
2022/07/12 04:49:53;;;;;;;4.07;3.40;;;;;;;14.52;81.06;102369.13;5077533;28;20621;-61
2022/07/12 04:52:18;;;;;;;6.50;3.80;;;;;;;14.61;81.46;102361.16;5075649;28;20048;-60
2022/07/12 04:54:43;;;;;;;4.20;3.80;;;;;;;14.68;81.86;102370.19;5078491;28;20040;-61
2022/07/12 04:57:09;;;;;;;5.07;4.47;;;;;;;14.74;82.20;102362.38;5077700;28;20035;-61
2022/07/12 04:59:34;;;;;;;5.80;4.72;;;;;;;14.82;81.89;102366.94;5080791;28;20023;-61
2022/07/12 05:02:01;;;;;;;6.30;4.57;;;;;;;14.90;82.41;102364.28;5079982;28;20024;-62
2022/07/12 05:04:26;;;;;;;6.43;5.15;;;;;;;15.05;82.80;102370.72;5079800;28;20027;-61
2022/07/12 05:06:52;;;;;;;6.00;5.20;;;;;;;15.13;82.85;102372.56;5085881;28;20646;-60
2022/07/12 05:09:17;;;;;;;7.18;5.35;;;;;;;15.28;82.98;102373.59;5083063;28;20027;-62
2022/07/12 05:11:42;;;;;;;6.18;5.00;;;;;;;15.31;83.23;102385.81;5083152;28;20554;-60
2022/07/12 05:14:08;;;;;;;6.57;5.88;;;;;;;15.37;83.45;102382.50;5084740;28;20111;-60
2022/07/12 05:16:33;;;;;;;6.43;5.82;;;;;;;15.45;83.02;102385.19;5079660;28;20028;-60
2022/07/12 05:18:59;;;;;;;8.98;6.35;;;;;;;15.53;83.16;102389.69;5078429;28;20400;-60
2022/07/12 05:21:25;;;;;;;9.18;7.00;;;;;;;15.61;83.90;102395.97;5081326;28;20020;-61
2022/07/12 05:23:50;;;;;;;7.88;7.07;;;;;;;15.67;83.69;102402.50;5076710;28;20081;-60
2022/07/12 05:26:15;;;;;;;7.55;6.85;;;;;;;15.75;83.85;102397.97;5081383;28;20051;-61
2022/07/12 05:28:41;;;;;;;8.45;6.97;;;;;;;15.85;84.02;102394.28;5074302;28;20051;-60
2022/07/12 05:31:09;;;;;;;8.65;7.85;;;;;;;15.98;84.42;102405.34;5081322;28;20024;-60
2022/07/12 05:33:35;;;;;;;9.68;8.40;;;;;;;16.07;84.25;102407.00;5076411;28;20111;-60
2022/07/12 05:36:01;;;;;;;10.70;9.15;;;;;;;16.18;84.44;102408.50;5077189;28;20101;-61
2022/07/12 05:38:26;;;;;;;11.23;9.18;;;;;;;16.28;84.92;102404.66;5080445;28;20061;-60
2022/07/12 05:40:51;;;;;;;12.48;11.23;;;;;;;16.51;85.13;102412.81;5078462;28;20020;-61
2022/07/12 05:43:17;;;;;;;10.82;9.82;;;;;;;16.61;85.29;102423.34;5074329;28;20542;-60
2022/07/12 05:45:42;;;;;;;12.05;10.95;;;;;;;16.76;85.12;102426.19;5080605;28;20036;-61
2022/07/12 05:48:08;;;;;;;11.18;10.07;;;;;;;16.81;84.51;102426.53;5083825;28;20047;-60
2022/07/12 05:50:33;;;;;;;12.25;11.00;;;;;;;16.95;84.54;102437.38;5080386;28;20027;-62
2022/07/12 05:55:42;;;;;;;12.90;11.68;;;;;;;17.06;84.33;102436.16;5078118;28;20109;-61
2022/07/12 05:58:07;;;;;;;14.00;12.60;;;;;;;17.14;84.33;102456.75;5080099;28;20059;-60
2022/07/12 06:00:33;;;;;;;14.40;12.93;;;;;;;17.21;84.49;102447.00;5083809;28;20948;-61
2022/07/12 06:02:58;;;;;;;13.93;12.10;;;;;;;17.26;84.46;102445.44;5077687;28;20026;-61
2022/07/12 06:05:24;;;;;;;14.32;12.82;;;;;;;17.31;84.35;102447.59;5075839;28;20150;-62
2022/07/12 06:07:49;;;;;;;13.82;12.40;;;;;;;17.38;84.29;102448.59;5078467;28;20077;-60
2022/07/12 06:10:14;;;;;;;14.52;13.13;;;;;;;17.44;84.65;102453.25;5074164;28;20020;-60
2022/07/12 06:12:40;;;;;;;15.38;13.35;;;;;;;17.48;84.59;102446.50;5076155;28;20028;-60
2022/07/12 06:15:06;;;;;;;16.08;14.38;;;;;;;17.54;84.17;102453.03;5079494;28;20086;-60
2022/07/12 06:17:33;;;;;;;16.25;14.65;;;;;;;17.59;84.00;102451.47;5071501;28;20092;-61
2022/07/12 06:19:58;;;;;;;16.50;14.75;;;;;;;17.62;84.08;102448.44;5079529;28;20055;-61
2022/07/12 06:22:23;;;;;;;16.08;13.77;;;;;;;17.78;84.04;102447.53;5073362;28;20608;-61
2022/07/12 06:24:49;;;;;;;16.17;14.48;;;;;;;17.88;83.79;102448.13;5077052;28;20043;-62
2022/07/12 06:27:14;;;;;;;16.13;14.52;;;;;;;17.99;83.13;102446.88;5080178;28;20039;-61
2022/07/12 06:29:39;;;;;;;15.75;14.20;;;;;;;18.11;83.15;102449.97;5075033;28;20023;-62
2022/07/12 06:32:05;;;;;;;15.15;13.65;;;;;;;18.15;82.93;102435.97;5071432;28;20052;-60
2022/07/12 06:34:30;;;;;;;14.93;13.52;;;;;;;18.29;82.68;102438.88;5078202;28;20043;-61
2022/07/12 06:36:56;;;;;;;15.95;14.18;;;;;;;18.36;82.66;102446.03;5076106;28;20423;-61
2022/07/12 06:39:21;;;;;;;16.50;14.10;;;;;;;18.50;82.43;102433.63;5068387;28;20036;-60
2022/07/12 06:41:46;;;;;;;14.60;13.20;;;;;;;18.52;82.16;102450.44;5063677;28;20781;-60
2022/07/12 06:44:11;;;;;;;15.27;13.68;;;;;;;18.62;81.58;102448.34;5072555;28;20032;-60
2022/07/12 06:46:37;;;;;;;15.13;13.57;;;;;;;18.71;81.55;102449.06;5078589;28;20929;-61
2022/07/12 06:49:02;;;;;;;14.90;13.45;;;;;;;18.81;81.35;102442.41;5074536;28;20104;-62
2022/07/12 06:51:27;;;;;;;16.08;12.88;;;;;;;18.87;81.23;102446.22;5077818;28;20035;-61
2022/07/12 06:53:53;;;;;;;13.93;12.55;;;;;;;18.92;80.43;102451.88;5075475;28;20043;-63
2022/07/12 06:56:18;;;;;;;15.18;12.27;;;;;;;18.95;80.18;102445.28;5077992;28;20032;-61
2022/07/12 06:58:44;;;;;;;13.75;12.45;;;;;;;19.07;80.01;102446.47;5075075;28;20035;-61
2022/07/12 07:01:10;;;;;;;15.80;14.20;;;;;;;19.12;79.94;102441.38;5077644;28;20388;-61
2022/07/12 07:03:35;;;;;;;17.67;13.93;;;;;;;19.24;79.95;102441.72;5075407;28;20050;-61
2022/07/12 07:06:00;;;;;;;15.30;13.68;;;;;;;19.36;79.49;102449.09;5077078;28;21281;-61
2022/07/12 07:08:25;;;;;;;14.70;13.30;;;;;;;19.48;79.54;102441.38;5076231;28;20115;-62
2022/07/12 07:10:52;;;;;;;15.07;13.50;;;;;;;19.56;79.21;102445.84;5075430;28;20032;-61
2022/07/12 07:13:17;;;;;;;14.75;13.23;;;;;;;19.66;78.84;102452.63;5069351;28;20024;-61
2022/07/12 07:15:42;;;;;;;16.45;13.50;;;;;;;19.74;78.51;102455.19;5075637;28;21471;-62
2022/07/12 07:18:08;;;;;;;14.77;13.13;;;;;;;19.86;78.23;102452.78;5072987;28;20127;-62
2022/07/12 07:20:33;;;;;;;12.55;11.27;;;;;;;19.89;77.67;102449.72;5086195;28;20485;-59
2022/07/12 07:22:59;;;;;;;10.85;9.75;;;;;;;19.89;76.20;102448.88;5079205;28;20016;-60
2022/07/12 07:25:24;;;;;;;10.30;8.55;;;;;;;19.89;75.71;102448.88;5088875;28;20024;-62
2022/07/12 07:27:49;;;;;;;9.40;8.32;;;;;;;19.87;74.58;102446.38;5094368;28;20037;-62
2022/07/12 07:32:58;;;;;;;9.00;8.10;;;;;;;19.97;74.16;102449.59;5085716;28;20031;-61
2022/07/12 07:35:23;;;;;;;9.23;8.32;;;;;;;20.00;74.20;102445.69;5090020;28;20028;-61
2022/07/12 07:37:49;;;;;;;8.73;7.90;;;;;;;20.04;73.60;102446.97;5094837;28;20033;-61
2022/07/12 07:40:14;;;;;;;11.90;9.48;;;;;;;20.13;73.91;102443.09;5087797;28;20042;-60
2022/07/12 07:42:39;;;;;;;10.63;9.05;;;;;;;20.20;74.20;102441.25;5086314;28;20017;-62
2022/07/12 07:45:06;;;;;;;9.73;8.60;;;;;;;20.25;73.80;102448.81;5092679;28;20027;-61
2022/07/12 07:47:31;;;;;;;9.15;8.30;;;;;;;20.19;72.86;102439.59;5081771;28;20035;-61
2022/07/12 07:49:57;;;;;;;8.63;7.43;;;;;;;20.24;72.99;102439.00;5093545;28;20019;-61
2022/07/12 07:52:22;;;;;;;12.20;8.40;;;;;;;20.23;73.17;102437.34;5085078;28;20022;-61
2022/07/12 07:54:47;;;;;;;8.70;7.80;;;;;;;20.29;73.32;102436.59;5094162;28;20160;-61
2022/07/12 07:57:12;;;;;;;8.52;7.07;;;;;;;20.35;72.98;102441.19;5088942;28;20028;-62
2022/07/12 07:59:38;;;;;;;8.20;7.03;;;;;;;20.47;73.26;102445.03;5082087;28;20119;-61
2022/07/12 08:02:03;;;;;;;10.32;7.40;;;;;;;20.54;73.05;102445.94;5085681;28;20080;-61
2022/07/12 08:04:29;;;;;;;8.20;7.40;;;;;;;20.64;73.01;102440.19;5085252;28;20066;-61
2022/07/12 08:06:56;;;;;;;8.45;7.25;;;;;;;20.73;72.97;102436.28;5087282;28;20031;-61
2022/07/12 08:09:22;;;;;;;10.80;7.50;;;;;;;20.75;71.63;102444.19;5090484;28;20020;-62
2022/07/12 08:11:47;;;;;;;8.93;8.00;;;;;;;20.80;71.49;102442.53;5084733;28;20091;-61
2022/07/12 08:14:12;;;;;;;8.57;7.68;;;;;;;20.87;71.42;102448.84;5092286;28;20779;-62
2022/07/12 08:16:38;;;;;;;11.98;9.05;;;;;;;20.98;71.29;102450.97;5082980;28;20036;-60
2022/07/12 08:19:04;;;;;;;12.20;10.07;;;;;;;20.96;70.58;102457.59;5090441;28;20376;-61
2022/07/12 08:21:29;;;;;;;11.10;9.93;;;;;;;21.01;70.49;102455.13;5089910;28;20016;-60
2022/07/12 08:23:55;;;;;;;11.18;10.10;;;;;;;21.10;70.80;102443.09;5090282;28;20032;-61
2022/07/12 08:26:21;;;;;;;12.52;11.23;;;;;;;21.16;70.56;102453.13;5087254;28;20392;-61
2022/07/12 08:28:46;;;;;;;13.20;11.88;;;;;;;21.15;69.49;102451.47;5086914;28;20036;-61
2022/07/12 08:31:14;;;;;;;12.40;11.10;;;;;;;21.11;69.33;102455.59;5088746;28;20016;-62
2022/07/12 08:33:40;;;;;;;13.10;11.70;;;;;;;21.11;69.58;102457.47;5096264;28;20020;-62
2022/07/12 08:36:08;;;;;;;15.48;12.07;;;;;;;21.14;69.46;102455.22;5088694;28;20106;-61
2022/07/12 08:38:36;;;;;;;15.73;13.88;;;;;;;21.17;69.64;102457.50;5091102;28;20040;-61
2022/07/12 08:41:01;;;;;;;13.90;12.60;;;;;;;21.22;69.88;102455.03;5091404;28;20043;-62
2022/07/12 08:43:26;;;;;;;15.02;13.48;;;;;;;21.28;69.59;102461.50;5090135;28;20020;-62
2022/07/12 08:45:51;;;;;;;15.63;13.70;;;;;;;21.35;69.31;102459.66;5098667;28;20016;-60
2022/07/12 08:48:17;;;;;;;14.63;13.02;;;;;;;21.46;69.30;102460.97;5091465;28;20092;-62
2022/07/12 08:50:42;;;;;;;14.60;12.65;;;;;;;21.67;69.03;102470.78;5089699;28;20016;-61
2022/07/12 08:53:11;;;;;;;13.25;11.52;;;;;;;21.77;68.33;102469.38;5093079;28;20020;-62
2022/07/12 08:55:37;;;;;;;16.00;11.13;;;;;;;21.81;67.64;102467.91;5092998;28;20036;-62
2022/07/12 08:58:07;;;;;;;13.80;11.40;;;;;;;21.88;66.62;102474.16;5085592;28;20043;-60
2022/07/12 09:00:33;;;;;;;15.18;11.32;;;;;;;21.92;66.49;102475.41;5083154;28;20028;-61
2022/07/12 09:03:00;;;;;;;12.32;11.02;;;;;;;21.96;65.98;102471.25;5085166;28;20582;-61
2022/07/12 09:05:30;;;;;;;12.57;10.35;;;;;;;22.10;65.85;102476.72;5079532;28;20411;-62
2022/07/12 09:08:06;;;;;;;11.82;10.63;;;;;;;22.19;65.89;102476.31;5085409;28;20039;-63
2022/07/12 09:10:33;;;;;;;11.50;10.13;;;;;;;22.17;64.29;102466.72;5081927;28;20031;-62
2022/07/12 09:12:59;;;;;;;12.90;11.30;;;;;;;22.20;64.91;102458.19;5085441;28;20032;-62
2022/07/12 09:15:24;;;;;;;11.73;10.25;;;;;;;22.32;64.86;102467.38;5085451;28;20032;-62
2022/07/12 09:18:03;;;;;;;12.20;10.88;;;;;;;22.35;64.73;102468.81;5086752;28;20043;-61
2022/07/12 09:20:31;;;;;;;12.88;10.60;;;;;;;22.47;63.64;102464.41;5085668;28;20742;-62
2022/07/12 09:23:00;;;;;;;11.57;9.35;;;;;;;22.60;63.99;102459.00;5075452;28;20031;-62
2022/07/12 09:25:26;;;;;;;10.65;8.82;;;;;;;22.77;63.49;102460.19;5085004;28;20024;-60
2022/07/12 09:27:53;;;;;;;9.35;8.27;;;;;;;23.00;63.23;102450.81;5087410;28;20472;-61
2022/07/12 09:30:21;;;;;;;10.65;8.13;;;;;;;23.24;62.64;102458.22;5091510;28;20031;-62
2022/07/12 09:38:17;;;;;;;8.02;6.50;;;;;;;23.70;61.17;102455.25;5089149;28;20115;-62
2022/07/12 09:40:43;;;;;;;7.30;6.60;;;;;;;23.77;60.14;102457.97;5092800;28;20169;-62
2022/07/12 09:43:10;;;;;;;10.85;8.20;;;;;;;23.67;59.08;102469.28;5090300;28;20481;-63
2022/07/12 09:45:36;;;;;;;8.38;6.45;;;;;;;23.52;59.12;102455.16;5084583;28;20028;-61
2022/07/12 09:48:02;;;;;;;8.13;7.32;;;;;;;23.46;58.85;102466.88;5086724;28;20024;-61
2022/07/12 09:50:30;;;;;;;8.15;7.35;;;;;;;23.50;58.64;102457.25;5092432;28;20024;-62
2022/07/12 09:52:59;;;;;;;6.57;5.78;;;;;;;23.57;59.43;102454.53;5087246;28;20051;-62
2022/07/12 09:55:26;;;;;;;8.05;7.25;;;;;;;23.81;59.77;102451.03;5086888;28;20043;-62
2022/07/12 09:57:55;;;;;;;7.07;6.13;;;;;;;24.13;59.40;102442.88;5083634;28;20106;-61
2022/07/12 10:00:21;;;;;;;8.32;7.10;;;;;;;24.14;57.57;102439.94;5083279;28;20046;-61
2022/07/12 10:02:50;;;;;;;7.72;6.93;;;;;;;24.19;57.71;102445.50;5088049;28;20028;-62
2022/07/12 10:05:16;;;;;;;9.85;7.35;;;;;;;24.06;56.84;102432.06;5080342;28;20028;-63
2022/07/12 10:07:42;;;;;;;11.18;7.30;;;;;;;24.02;56.66;102430.84;5083765;28;20070;-62
2022/07/12 10:10:10;;;;;;;8.10;6.90;;;;;;;24.09;57.40;102427.03;5081671;28;20027;-62
2022/07/12 10:12:36;;;;;;;9.30;7.13;;;;;;;24.29;57.76;102420.63;5087397;28;20118;-62
2022/07/12 10:15:13;;;;;;;8.95;6.90;;;;;;;24.33;57.62;102425.38;5081641;28;20131;-61
2022/07/12 10:17:40;;;;;;;10.00;6.07;;;;;;;24.25;56.89;102430.22;5083273;28;20967;-65
2022/07/12 10:20:22;;;;;;;5.70;5.13;;;;;;;24.27;56.57;102425.38;5086559;28;20023;-62
2022/07/12 10:22:47;;;;;;;5.57;4.88;;;;;;;24.47;57.14;102417.09;5082593;28;20538;-63
2022/07/12 10:25:39;;;;;;;7.63;5.10;;;;;;;24.97;56.86;102418.59;5085028;28;20020;-62
2022/07/12 10:28:04;;;;;;;6.53;5.25;;;;;;;25.14;56.49;102421.53;5075701;28;20046;-62
2022/07/12 10:30:30;;;;;;;10.38;5.68;;;;;;;25.23;56.20;102428.34;5086536;28;20024;-61
2022/07/12 10:32:59;;;;;;;7.35;5.18;;;;;;;25.27;55.46;102431.44;5086783;28;20169;-62
2022/07/12 10:35:27;;;;;;;6.35;5.53;;;;;;;25.31;54.46;102444.34;5082801;28;20024;-62
2022/07/12 10:38:13;;;;;;;6.00;5.32;;;;;;;25.42;54.63;102444.59;5085021;28;20688;-62
2022/07/12 10:40:39;;;;;;;7.45;5.22;;;;;;;25.43;55.18;102440.81;5086922;28;20040;-62
2022/07/12 10:43:05;;;;;;;8.43;5.35;;;;;;;25.41;53.75;102432.91;5088433;28;20020;-62
2022/07/12 10:45:34;;;;;;;7.20;5.38;;;;;;;25.41;53.76;102438.34;5082855;28;20388;-62
2022/07/12 10:48:02;;;;;;;6.65;5.95;;;;;;;25.38;54.06;102440.69;5087317;28;20036;-62
2022/07/12 10:50:48;;;;;;;8.65;5.97;;;;;;;25.37;53.39;102442.59;5087586;28;20024;-62
2022/07/12 10:53:20;;;;;;;8.15;6.32;;;;;;;25.46;53.14;102438.50;5084177;28;20031;-62
2022/07/12 10:56:04;;;;;;;6.53;5.93;;;;;;;25.51;52.48;102446.78;5084836;28;20032;-62
2022/07/12 10:58:41;;;;;;;5.43;4.93;;;;;;;25.62;52.69;102442.44;5085418;28;20131;-62
2022/07/12 11:01:15;;;;;;;7.70;4.60;;;;;;;25.78;52.82;102439.09;5083867;28;20027;-61
2022/07/12 11:03:47;;;;;;;6.03;4.50;;;;;;;25.81;52.36;102446.78;5084260;28;20016;-62
2022/07/12 11:06:24;;;;;;;4.65;4.22;;;;;;;25.81;51.41;102435.09;5086381;28;20028;-62
2022/07/12 11:08:52;;;;;;;4.32;3.92;;;;;;;25.90;51.31;102426.34;5078818;28;20032;-63
2022/07/12 11:11:19;;;;;;;5.22;4.40;;;;;;;25.99;51.23;102424.09;5084124;28;20024;-62
2022/07/12 11:13:44;;;;;;;4.10;3.70;;;;;;;26.01;50.66;102427.41;5084956;28;20051;-62
2022/07/12 11:16:10;;;;;;;5.97;3.72;;;;;;;26.27;51.80;102426.13;5081979;28;20183;-63
2022/07/12 11:18:36;;;;;;;4.88;4.38;;;;;;;26.27;51.02;102426.13;5086873;28;20118;-62
2022/07/12 11:21:02;;;;;;;4.20;3.80;;;;;;;26.12;50.36;102440.22;5087190;28;20098;-62
2022/07/12 11:23:29;;;;;;;6.00;4.38;;;;;;;26.08;49.98;102439.03;5095647;28;20012;-62
2022/07/12 11:25:55;;;;;;;4.95;4.45;;;;;;;26.15;50.16;102423.41;5084278;28;20032;-63
2022/07/12 11:28:23;;;;;;;5.75;3.95;;;;;;;26.13;50.62;102420.09;5085336;28;20035;-62